createdAt,value
2023-07-19T00:00:37.686Z,19.11
2023-07-19T00:03:28.706Z,19.12
2023-07-19T00:06:19.388Z,19.11
2023-07-19T00:09:10.109Z,19.10
2023-07-19T00:12:00.750Z,19.07
2023-07-19T00:14:51.573Z,19.08
2023-07-19T00:17:45.600Z,19.07
2023-07-19T00:20:36.896Z,19.07
2023-07-19T00:23:27.702Z,19.07
2023-07-19T00:26:18.368Z,19.09
2023-07-19T00:29:09.133Z,19.12
2023-07-19T00:31:59.863Z,19.18
2023-07-19T00:34:50.735Z,19.21
2023-07-19T00:37:41.513Z,19.22
2023-07-19T00:40:34.489Z,19.21
2023-07-19T00:43:25.166Z,19.23
2023-07-19T00:46:16.332Z,19.23
2023-07-19T00:49:07.687Z,19.16
2023-07-19T00:52:01.659Z,19.12
2023-07-19T00:54:52.527Z,19.12
2023-07-19T00:57:43.476Z,19.10
2023-07-19T01:00:34.211Z,19.07
2023-07-19T01:03:25.169Z,19.00
2023-07-19T01:06:16.142Z,19.00
2023-07-19T01:09:07.006Z,18.97
2023-07-19T01:11:57.675Z,18.90
2023-07-19T01:14:48.458Z,18.82
2023-07-19T01:17:39.288Z,18.83
2023-07-19T01:20:30.154Z,18.84
2023-07-19T01:23:20.809Z,18.82
2023-07-19T01:26:11.569Z,18.78
2023-07-19T01:29:02.272Z,18.73
2023-07-19T01:31:53.182Z,18.69
2023-07-19T01:34:43.859Z,18.66
2023-07-19T01:37:36.038Z,18.64
2023-07-19T01:40:26.916Z,18.62
2023-07-19T01:43:17.581Z,18.60
2023-07-19T01:46:08.332Z,18.60
2023-07-19T01:48:59.165Z,18.62
2023-07-19T01:51:49.872Z,18.64
2023-07-19T01:54:40.505Z,18.64
2023-07-19T01:57:31.251Z,18.64
2023-07-19T02:00:21.954Z,18.64
2023-07-19T02:03:13.621Z,18.64
2023-07-19T02:06:04.473Z,18.63
2023-07-19T02:08:55.271Z,18.60
2023-07-19T02:11:46.071Z,18.56
2023-07-19T02:14:38.281Z,18.58
2023-07-19T02:17:28.989Z,18.59
2023-07-19T02:20:20.733Z,18.61
2023-07-19T02:23:11.431Z,18.62
2023-07-19T02:26:02.343Z,18.62
2023-07-19T02:28:53.098Z,18.63
2023-07-19T02:31:44.193Z,18.65
2023-07-19T02:34:35.005Z,18.66
2023-07-19T02:37:25.810Z,18.64
2023-07-19T02:40:16.822Z,18.65
2023-07-19T02:43:07.606Z,18.65
2023-07-19T02:45:58.362Z,18.65
2023-07-19T02:48:49.061Z,18.66
2023-07-19T02:51:40.143Z,18.65
2023-07-19T02:54:30.783Z,18.66
2023-07-19T02:57:21.599Z,18.66
2023-07-19T03:00:12.879Z,18.64
2023-07-19T03:03:03.897Z,18.62
2023-07-19T03:05:54.685Z,18.61
2023-07-19T03:08:45.493Z,18.59
2023-07-19T03:11:36.265Z,18.60
2023-07-19T03:14:27.151Z,18.61
2023-07-19T03:17:18.075Z,18.62
2023-07-19T03:20:10.619Z,18.61
2023-07-19T03:23:02.210Z,18.62
2023-07-19T03:25:53.247Z,18.61
2023-07-19T03:28:43.929Z,18.62
2023-07-19T03:31:34.835Z,18.65
2023-07-19T03:34:25.488Z,18.65
2023-07-19T03:37:16.667Z,18.68
2023-07-19T03:40:08.669Z,18.71
2023-07-19T03:42:59.459Z,18.77
2023-07-19T03:45:50.110Z,18.82
2023-07-19T03:48:40.892Z,18.89
2023-07-19T03:51:31.626Z,18.93
2023-07-19T03:54:22.522Z,18.98
2023-07-19T03:57:13.296Z,19.03
2023-07-19T04:00:05.343Z,19.11
2023-07-19T04:02:56.267Z,19.18
2023-07-19T04:05:47.151Z,19.29
2023-07-19T04:08:37.802Z,19.42
2023-07-19T04:11:30.237Z,19.57
2023-07-19T04:14:20.914Z,19.74
2023-07-19T04:17:12.467Z,19.90
2023-07-19T04:20:03.572Z,20.08
2023-07-19T04:22:54.480Z,20.29
2023-07-19T04:25:45.214Z,20.51
2023-07-19T04:28:36.170Z,20.69
2023-07-19T04:31:26.842Z,20.85
2023-07-19T04:34:17.850Z,21.03
2023-07-19T04:37:08.642Z,21.18
2023-07-19T04:39:59.885Z,21.34
2023-07-19T04:42:50.668Z,21.48
2023-07-19T04:45:47.144Z,21.60
2023-07-19T04:48:38.192Z,21.75
2023-07-19T04:51:28.845Z,21.89
2023-07-19T04:54:19.749Z,22.06
2023-07-19T04:57:10.384Z,22.21
2023-07-19T05:00:05.948Z,22.37
2023-07-19T05:02:56.902Z,22.51
2023-07-19T05:05:49.027Z,22.70
2023-07-19T05:08:39.854Z,22.91
2023-07-19T05:11:31.235Z,23.26
2023-07-19T05:14:22.096Z,23.52
2023-07-19T05:17:13.063Z,23.89
2023-07-19T05:20:04.327Z,24.06
2023-07-19T05:22:55.017Z,24.18
2023-07-19T05:25:47.956Z,24.67
2023-07-19T05:28:38.990Z,25.21
2023-07-19T05:31:30.110Z,25.73
2023-07-19T05:34:20.820Z,26.26
2023-07-19T05:37:11.690Z,26.60
2023-07-19T05:40:02.394Z,26.74
2023-07-19T05:42:53.243Z,26.84
2023-07-19T05:45:44.053Z,27.12
2023-07-19T05:48:35.770Z,27.38
2023-07-19T05:51:26.420Z,27.63
2023-07-19T05:54:17.640Z,27.90
2023-07-19T05:57:08.357Z,28.12
2023-07-19T06:00:20.114Z,28.40
2023-07-19T06:03:12.082Z,28.76
2023-07-19T06:06:07.197Z,29.00
2023-07-19T06:08:57.895Z,29.25
2023-07-19T06:11:48.775Z,29.48
2023-07-19T06:14:39.439Z,29.75
2023-07-19T06:17:30.818Z,29.90
2023-07-19T06:20:21.690Z,30.14
2023-07-19T06:23:12.493Z,30.48
2023-07-19T06:26:05.882Z,30.71
2023-07-19T06:28:57.167Z,30.78
2023-07-19T06:31:47.972Z,31.01
2023-07-19T06:34:38.847Z,31.27
2023-07-19T06:37:29.559Z,31.56
2023-07-19T06:40:20.461Z,31.56
2023-07-19T06:43:11.125Z,31.67
2023-07-19T06:46:02.137Z,31.92
2023-07-19T06:48:52.853Z,32.08
2023-07-19T06:51:43.727Z,31.99
2023-07-19T06:54:34.762Z,31.96
2023-07-19T06:57:25.615Z,31.98
2023-07-19T07:00:16.696Z,31.93
2023-07-19T07:03:07.638Z,31.87
2023-07-19T07:06:00.542Z,31.69
2023-07-19T07:08:52.456Z,31.51
2023-07-19T07:11:43.124Z,31.38
2023-07-19T07:14:34.348Z,31.36
2023-07-19T07:17:25.118Z,31.29
2023-07-19T07:20:16.083Z,31.31
2023-07-19T07:23:06.840Z,31.31
2023-07-19T07:25:57.831Z,31.37
2023-07-19T07:28:48.508Z,31.59
2023-07-19T07:31:39.600Z,31.89
2023-07-19T07:34:30.303Z,32.16
2023-07-19T07:37:21.038Z,32.42
2023-07-19T07:40:12.424Z,32.74
2023-07-19T07:43:03.342Z,33.02
2023-07-19T07:45:56.474Z,33.12
2023-07-19T07:48:47.138Z,33.19
2023-07-19T07:51:37.929Z,33.33
2023-07-19T07:54:28.719Z,33.53
2023-07-19T07:57:19.358Z,33.60
2023-07-19T08:00:13.081Z,33.79
2023-07-19T08:03:03.990Z,33.97
2023-07-19T08:05:55.398Z,34.07
2023-07-19T08:08:46.245Z,34.19
2023-07-19T08:11:37.076Z,34.25
2023-07-19T08:14:27.735Z,34.38
2023-07-19T08:17:18.619Z,34.40
2023-07-19T08:20:11.165Z,34.48
2023-07-19T08:23:03.582Z,34.62
2023-07-19T08:25:59.119Z,34.72
2023-07-19T08:28:50.202Z,34.84
2023-07-19T08:31:40.848Z,34.84
2023-07-19T08:34:31.647Z,34.81
2023-07-19T08:37:22.450Z,34.95
2023-07-19T08:40:15.867Z,35.06
2023-07-19T08:43:08.436Z,35.10
2023-07-19T08:45:59.394Z,35.04
2023-07-19T08:48:50.161Z,34.93
2023-07-19T08:51:42.808Z,34.86
2023-07-19T08:54:34.018Z,34.85
2023-07-19T08:57:24.993Z,34.83
2023-07-19T09:00:19.181Z,34.84
2023-07-19T09:03:11.195Z,34.92
2023-07-19T09:06:02.930Z,34.83
2023-07-19T09:08:53.855Z,34.64
2023-07-19T09:11:50.900Z,34.65
2023-07-19T09:14:41.544Z,34.69
2023-07-19T09:17:46.359Z,34.70
2023-07-19T09:20:39.829Z,34.68
2023-07-19T09:23:38.445Z,34.59
2023-07-19T09:26:29.334Z,34.61
2023-07-19T09:29:24.423Z,34.62
2023-07-19T09:32:16.577Z,34.67
2023-07-19T09:35:09.442Z,34.77
2023-07-19T09:38:00.256Z,34.82
2023-07-19T09:40:53.248Z,34.67
2023-07-19T09:43:44.999Z,34.61
2023-07-19T09:46:35.850Z,34.61
2023-07-19T09:49:26.536Z,34.64
2023-07-19T09:52:20.860Z,34.61
2023-07-19T09:55:12.004Z,34.59
2023-07-19T09:58:04.841Z,34.56
2023-07-19T10:00:55.504Z,34.65
2023-07-19T10:03:46.440Z,34.67
2023-07-19T10:06:37.147Z,34.71
2023-07-19T10:09:42.586Z,34.73
2023-07-19T10:12:37.934Z,34.70
2023-07-19T10:15:29.598Z,34.71
2023-07-19T10:18:21.107Z,34.76
2023-07-19T10:21:11.873Z,34.83
2023-07-19T10:24:08.848Z,34.92
2023-07-19T10:27:05.175Z,34.88
2023-07-19T10:30:06.138Z,34.85
2023-07-19T10:32:57.151Z,34.92
2023-07-19T10:35:51.237Z,34.98
2023-07-19T10:38:41.972Z,35.07
2023-07-19T10:41:32.800Z,35.09
2023-07-19T10:44:24.034Z,35.10
2023-07-19T10:47:16.062Z,35.05
2023-07-19T10:50:07.260Z,35.05
2023-07-19T10:52:58.288Z,35.07
2023-07-19T10:55:54.574Z,35.04
2023-07-19T10:58:45.912Z,34.99
2023-07-19T11:01:36.805Z,34.94
2023-07-19T11:04:30.331Z,34.89
2023-07-19T11:07:32.592Z,34.92
2023-07-19T11:10:23.653Z,34.97
2023-07-19T11:13:14.892Z,35.02
2023-07-19T11:16:06.133Z,35.07
2023-07-19T11:18:56.864Z,35.07
2023-07-19T11:21:47.673Z,35.08
2023-07-19T11:24:42.767Z,35.05
2023-07-19T11:27:38.264Z,35.03
2023-07-19T11:30:42.298Z,34.99
2023-07-19T11:33:35.758Z,34.94
2023-07-19T11:36:27.105Z,34.91
2023-07-19T11:39:21.908Z,34.93
2023-07-19T11:42:12.561Z,34.99
2023-07-19T11:45:11.368Z,35.08
2023-07-19T11:48:04.032Z,35.07
2023-07-19T11:50:55.283Z,34.99
2023-07-19T11:53:45.934Z,34.91
2023-07-19T11:56:37.099Z,34.80
2023-07-19T11:59:27.988Z,34.74
2023-07-19T12:02:18.657Z,34.72
2023-07-19T12:05:09.827Z,34.53
2023-07-19T12:08:00.472Z,34.27
2023-07-19T12:10:51.317Z,34.03
2023-07-19T12:13:41.953Z,33.78
2023-07-19T12:16:33.040Z,33.45
2023-07-19T12:19:23.744Z,33.17
2023-07-19T12:22:14.946Z,32.93
2023-07-19T12:25:06.549Z,32.71
2023-07-19T12:27:57.427Z,32.52
2023-07-19T12:30:48.080Z,32.37
2023-07-19T12:33:40.465Z,32.28
2023-07-19T12:36:31.751Z,32.28
2023-07-19T12:39:25.836Z,32.40
2023-07-19T12:42:16.663Z,32.53
2023-07-19T12:45:10.929Z,32.63
2023-07-19T12:48:03.972Z,32.70
2023-07-19T12:50:55.743Z,32.71
2023-07-19T12:53:46.826Z,32.73
2023-07-19T12:56:37.538Z,32.70
2023-07-19T12:59:29.548Z,32.77
2023-07-19T13:02:20.337Z,32.83
2023-07-19T13:05:12.850Z,32.88
2023-07-19T13:08:03.609Z,32.80
2023-07-19T13:10:54.536Z,32.76
2023-07-19T13:13:45.292Z,32.74
2023-07-19T13:16:36.363Z,32.69
2023-07-19T13:19:27.228Z,32.71
2023-07-19T13:22:18.273Z,32.70
2023-07-19T13:25:09.263Z,32.69
2023-07-19T13:28:00.216Z,32.66
2023-07-19T13:30:51.172Z,32.64
2023-07-19T13:33:42.211Z,32.63
2023-07-19T13:36:53.422Z,32.59
2023-07-19T13:39:44.930Z,32.60
2023-07-19T13:42:39.377Z,32.60
2023-07-19T13:45:30.733Z,32.56
2023-07-19T13:48:21.412Z,32.58
2023-07-19T13:51:12.336Z,32.57
2023-07-19T13:54:03.065Z,32.56
2023-07-19T13:56:53.936Z,32.53
2023-07-19T13:59:44.687Z,32.50
2023-07-19T14:02:38.011Z,32.47
2023-07-19T14:05:28.941Z,32.44
2023-07-19T14:08:19.786Z,32.41
2023-07-19T14:11:10.833Z,32.34
2023-07-19T14:14:02.071Z,32.23
2023-07-19T14:16:53.707Z,32.22
2023-07-19T14:19:44.637Z,32.22
2023-07-19T14:22:35.892Z,32.18
2023-07-19T14:25:27.084Z,32.07
2023-07-19T14:28:18.076Z,31.99
2023-07-19T14:31:08.900Z,31.95
2023-07-19T14:34:00.293Z,31.94
2023-07-19T14:36:50.948Z,31.92
2023-07-19T14:39:41.821Z,31.93
2023-07-19T14:42:33.276Z,31.93
2023-07-19T14:45:24.018Z,31.92
2023-07-19T14:48:14.779Z,31.89
2023-07-19T14:51:06.859Z,31.87
2023-07-19T14:53:58.858Z,31.84
2023-07-19T14:56:50.414Z,31.77
2023-07-19T14:59:43.916Z,31.71
2023-07-19T15:02:35.792Z,31.65
2023-07-19T15:05:26.866Z,31.60
2023-07-19T15:08:17.834Z,31.55
2023-07-19T15:11:09.456Z,31.54
2023-07-19T15:14:00.182Z,31.50
2023-07-19T15:16:51.130Z,31.43
2023-07-19T15:19:41.901Z,31.38
2023-07-19T15:22:33.451Z,31.33
2023-07-19T15:25:24.485Z,31.30
2023-07-19T15:28:28.115Z,31.30
2023-07-19T15:31:20.894Z,31.32
2023-07-19T15:34:12.166Z,31.28
2023-07-19T15:37:03.074Z,31.26
2023-07-19T15:39:53.886Z,31.22
2023-07-19T15:42:44.547Z,31.23
2023-07-19T15:45:35.448Z,31.23
2023-07-19T15:48:26.200Z,31.18
2023-07-19T15:51:17.292Z,31.13
2023-07-19T15:54:08.033Z,31.04
2023-07-19T15:56:59.000Z,30.95
2023-07-19T15:59:49.647Z,30.82
2023-07-19T16:02:40.883Z,30.72
2023-07-19T16:05:31.923Z,30.62
2023-07-19T16:08:22.820Z,30.56
2023-07-19T16:11:13.659Z,30.53
2023-07-19T16:14:08.108Z,30.54
2023-07-19T16:17:01.022Z,30.53
2023-07-19T16:19:51.729Z,30.52
2023-07-19T16:22:43.533Z,30.50
2023-07-19T16:25:34.532Z,30.50
2023-07-19T16:28:25.398Z,30.45
2023-07-19T16:31:20.354Z,30.43
2023-07-19T16:34:11.469Z,30.41
2023-07-19T16:37:06.793Z,30.40
2023-07-19T16:39:58.089Z,30.38
2023-07-19T16:42:49.689Z,30.32
2023-07-19T16:45:40.460Z,30.28
2023-07-19T16:48:33.038Z,30.23
2023-07-19T16:51:24.611Z,30.18
2023-07-19T16:54:15.641Z,30.13
2023-07-19T16:57:06.488Z,30.10
2023-07-19T17:00:10.791Z,30.08
2023-07-19T17:03:08.136Z,30.04
2023-07-19T17:05:58.893Z,30.02
2023-07-19T17:08:51.244Z,29.97
2023-07-19T17:11:41.957Z,29.91
2023-07-19T17:14:32.752Z,29.87
2023-07-19T17:17:23.477Z,29.81
2023-07-19T17:20:14.715Z,29.75
2023-07-19T17:23:06.872Z,29.70
2023-07-19T17:25:57.816Z,29.67
2023-07-19T17:28:49.928Z,29.62
2023-07-19T17:31:40.916Z,29.58
2023-07-19T17:34:31.643Z,29.53
2023-07-19T17:37:22.522Z,29.48
2023-07-19T17:40:13.623Z,29.45
2023-07-19T17:43:04.565Z,29.40
2023-07-19T17:45:55.384Z,29.38
2023-07-19T17:48:49.229Z,29.33
2023-07-19T17:51:39.974Z,29.26
2023-07-19T17:54:30.821Z,29.17
2023-07-19T17:57:22.257Z,29.07
2023-07-19T18:00:13.801Z,28.98
2023-07-19T18:03:04.655Z,28.87
2023-07-19T18:05:57.537Z,28.77
2023-07-19T18:08:48.438Z,28.65
2023-07-19T18:11:39.345Z,28.53
2023-07-19T18:14:30.222Z,28.44
2023-07-19T18:17:21.030Z,28.32
2023-07-19T18:20:11.955Z,28.16
2023-07-19T18:23:02.876Z,28.02
2023-07-19T18:25:53.665Z,27.87
2023-07-19T18:28:46.344Z,27.67
2023-07-19T18:31:37.017Z,27.51
2023-07-19T18:34:27.911Z,27.32
2023-07-19T18:37:18.558Z,27.13
2023-07-19T18:40:10.342Z,26.91
2023-07-19T18:43:01.685Z,26.68
2023-07-19T18:45:54.228Z,26.47
2023-07-19T18:48:44.924Z,26.27
2023-07-19T18:51:35.989Z,26.12
2023-07-19T18:54:28.229Z,25.95
2023-07-19T18:57:20.468Z,25.79
2023-07-19T19:00:11.500Z,25.65
2023-07-19T19:03:02.666Z,25.55
2023-07-19T19:05:54.110Z,25.43
2023-07-19T19:08:45.155Z,25.36
2023-07-19T19:11:35.813Z,25.23
2023-07-19T19:14:26.632Z,25.08
2023-07-19T19:17:17.261Z,24.94
2023-07-19T19:20:09.651Z,24.81
2023-07-19T19:23:03.251Z,24.67
2023-07-19T19:25:54.137Z,24.53
2023-07-19T19:28:45.828Z,24.36
2023-07-19T19:31:37.432Z,24.24
2023-07-19T19:34:28.113Z,24.08
2023-07-19T19:37:18.921Z,23.93
2023-07-19T19:40:11.371Z,23.82
2023-07-19T19:43:02.267Z,23.72
2023-07-19T19:45:54.289Z,23.61
2023-07-19T19:48:45.282Z,23.54
2023-07-19T19:51:37.473Z,23.48
2023-07-19T19:54:28.411Z,23.38
2023-07-19T19:57:19.245Z,23.24
2023-07-19T20:00:13.497Z,23.11
2023-07-19T20:05:59.905Z,22.88
2023-07-19T20:08:50.789Z,22.79
2023-07-19T20:11:46.966Z,22.73
2023-07-19T20:14:38.460Z,22.65
2023-07-19T20:17:29.148Z,22.51
2023-07-19T20:20:27.202Z,22.45
2023-07-19T20:23:21.423Z,22.33
2023-07-19T20:26:15.133Z,22.24
2023-07-19T20:32:00.971Z,22.17
2023-07-19T20:37:46.525Z,22.15
2023-07-19T20:43:34.417Z,22.16
2023-07-19T20:46:25.325Z,22.15
2023-07-19T20:49:16.553Z,22.17
2023-07-19T20:52:08.096Z,22.13
2023-07-19T20:54:58.897Z,22.12
2023-07-19T20:57:49.908Z,22.15
2023-07-19T21:00:40.658Z,22.20
2023-07-19T21:03:35.070Z,22.27
2023-07-19T21:06:26.018Z,22.34
2023-07-19T21:09:17.186Z,22.39
2023-07-19T21:12:08.843Z,22.40
2023-07-19T21:14:59.885Z,22.41
2023-07-19T21:17:57.700Z,22.41
2023-07-19T21:20:48.660Z,22.44
2023-07-19T21:23:39.577Z,22.48
2023-07-19T21:26:33.420Z,22.55
2023-07-19T21:29:28.636Z,22.56
2023-07-19T21:32:23.175Z,22.60
2023-07-19T21:35:14.114Z,22.60
2023-07-19T21:38:05.088Z,22.59
2023-07-19T21:40:56.344Z,22.62
2023-07-19T21:43:48.316Z,22.65
2023-07-19T21:46:39.168Z,22.69
2023-07-19T21:49:29.814Z,22.71
2023-07-19T21:52:20.770Z,22.73
2023-07-19T21:55:14.117Z,22.73
2023-07-19T21:58:05.021Z,22.69
2023-07-19T22:00:58.815Z,22.67
2023-07-19T22:03:49.916Z,22.64
2023-07-19T22:06:41.116Z,22.64
2023-07-19T22:09:32.211Z,22.64
2023-07-19T22:12:22.905Z,22.62
2023-07-19T22:15:17.336Z,22.58
2023-07-19T22:18:28.373Z,22.59
2023-07-19T22:21:22.099Z,22.58
2023-07-19T22:24:13.362Z,22.56
2023-07-19T22:27:04.687Z,22.56
2023-07-19T22:29:55.470Z,22.55
2023-07-19T22:32:46.224Z,22.51
2023-07-19T22:35:37.123Z,22.52
2023-07-19T22:38:27.878Z,22.47
2023-07-19T22:41:18.536Z,22.37
2023-07-19T22:44:09.476Z,22.25
2023-07-19T22:47:00.484Z,22.20
2023-07-19T22:49:51.394Z,22.11
2023-07-19T22:52:49.692Z,21.98
2023-07-19T22:55:40.580Z,21.90
2023-07-19T22:58:32.516Z,21.83
2023-07-19T23:01:23.466Z,21.77
2023-07-19T23:04:14.252Z,21.67
2023-07-19T23:07:05.296Z,21.60
2023-07-19T23:09:55.978Z,21.50
2023-07-19T23:12:51.752Z,21.38
2023-07-19T23:15:43.160Z,21.27
2023-07-19T23:18:33.998Z,21.15
2023-07-19T23:21:24.784Z,21.01
2023-07-19T23:24:15.786Z,20.92
2023-07-19T23:27:07.694Z,20.86
2023-07-19T23:29:58.612Z,20.78
2023-07-19T23:32:51.960Z,20.69
2023-07-19T23:35:42.920Z,20.64
2023-07-19T23:38:33.674Z,20.58
2023-07-19T23:41:24.694Z,20.56
2023-07-19T23:44:15.913Z,20.51
2023-07-19T23:47:10.985Z,20.47
2023-07-19T23:50:01.680Z,20.42
2023-07-19T23:52:52.722Z,20.44
2023-07-19T23:55:44.142Z,20.49
2023-07-19T23:58:35.086Z,20.47
